sensor_id;sensor_type;location;lat;lon;timestamp;pressure;altitude;pressure_sealevel;temperature;humidity
7906;BME280;13291;40.472;-3.878;2022-09-27T00:01:16;53134.00;;;-139.96;36.42
7906;BME280;13291;40.472;-3.878;2022-09-27T00:03:43;53114.00;;;-139.96;36.86
7906;BME280;13291;40.472;-3.878;2022-09-27T00:06:12;53086.00;;;-139.96;36.13
7906;BME280;13291;40.472;-3.878;2022-09-27T00:08:40;53098.00;;;-139.96;36.54
7906;BME280;13291;40.472;-3.878;2022-09-27T00:11:11;53130.00;;;-139.96;36.96
7906;BME280;13291;40.472;-3.878;2022-09-27T00:13:42;53106.00;;;-139.96;37.33
7906;BME280;13291;40.472;-3.878;2022-09-27T00:16:09;53110.00;;;-139.96;37.43
7906;BME280;13291;40.472;-3.878;2022-09-27T00:18:38;53142.00;;;-139.96;37.24
7906;BME280;13291;40.472;-3.878;2022-09-27T00:21:06;53124.00;;;-139.96;36.94
7906;BME280;13291;40.472;-3.878;2022-09-27T00:23:34;53116.00;;;-139.96;37.30
7906;BME280;13291;40.472;-3.878;2022-09-27T00:26:02;53146.00;;;-139.96;37.50
7906;BME280;13291;40.472;-3.878;2022-09-27T00:28:31;53104.00;;;-139.96;37.23
7906;BME280;13291;40.472;-3.878;2022-09-27T00:30:58;53140.00;;;-139.96;37.73
7906;BME280;13291;40.472;-3.878;2022-09-27T00:33:25;53114.00;;;-139.96;37.23
7906;BME280;13291;40.472;-3.878;2022-09-27T00:35:54;53094.00;;;-139.96;37.35
7906;BME280;13291;40.472;-3.878;2022-09-27T00:38:21;53112.00;;;-139.96;37.98
7906;BME280;13291;40.472;-3.878;2022-09-27T00:40:48;53116.00;;;-139.96;38.25
7906;BME280;13291;40.472;-3.878;2022-09-27T00:43:18;53108.00;;;-139.96;37.67
7906;BME280;13291;40.472;-3.878;2022-09-27T00:45:48;53134.00;;;-139.96;36.70
7906;BME280;13291;40.472;-3.878;2022-09-27T00:48:17;53110.00;;;-139.96;36.26
7906;BME280;13291;40.472;-3.878;2022-09-27T00:50:49;53086.00;;;-139.96;37.08
7906;BME280;13291;40.472;-3.878;2022-09-27T00:53:25;53100.00;;;-139.96;36.47
7906;BME280;13291;40.472;-3.878;2022-09-27T00:55:56;53098.00;;;-139.96;36.17
7906;BME280;13291;40.472;-3.878;2022-09-27T00:58:28;53124.00;;;-139.96;35.88
7906;BME280;13291;40.472;-3.878;2022-09-27T01:00:58;53126.00;;;-139.96;36.56
7906;BME280;13291;40.472;-3.878;2022-09-27T01:03:33;53130.00;;;-139.96;36.82
7906;BME280;13291;40.472;-3.878;2022-09-27T01:06:02;53104.00;;;-139.96;36.91
7906;BME280;13291;40.472;-3.878;2022-09-27T01:08:34;53110.00;;;-139.96;36.85
7906;BME280;13291;40.472;-3.878;2022-09-27T01:11:13;53098.00;;;-139.96;36.48
7906;BME280;13291;40.472;-3.878;2022-09-27T01:13:51;53138.00;;;-139.96;37.55
7906;BME280;13291;40.472;-3.878;2022-09-27T01:16:29;53124.00;;;-139.96;37.27
7906;BME280;13291;40.472;-3.878;2022-09-27T01:19:08;53118.00;;;-139.96;37.85
7906;BME280;13291;40.472;-3.878;2022-09-27T01:21:51;53130.00;;;-139.96;38.35
7906;BME280;13291;40.472;-3.878;2022-09-27T01:24:50;53102.00;;;-139.96;37.99
7906;BME280;13291;40.472;-3.878;2022-09-27T01:28:00;53130.00;;;-139.96;36.73
7906;BME280;13291;40.472;-3.878;2022-09-27T01:30:35;53126.00;;;-139.96;36.78
7906;BME280;13291;40.472;-3.878;2022-09-27T01:33:13;53122.00;;;-139.96;36.70
7906;BME280;13291;40.472;-3.878;2022-09-27T01:35:51;53138.00;;;-139.96;36.51
7906;BME280;13291;40.472;-3.878;2022-09-27T01:38:26;53118.00;;;-139.96;37.02
7906;BME280;13291;40.472;-3.878;2022-09-27T01:41:02;53116.00;;;-139.96;37.38
7906;BME280;13291;40.472;-3.878;2022-09-27T01:43:36;53142.00;;;-139.96;37.32
7906;BME280;13291;40.472;-3.878;2022-09-27T01:46:09;53126.00;;;-139.96;37.59
7906;BME280;13291;40.472;-3.878;2022-09-27T01:48:41;53126.00;;;-139.96;37.71
7906;BME280;13291;40.472;-3.878;2022-09-27T01:51:12;53142.00;;;-139.96;37.59
7906;BME280;13291;40.472;-3.878;2022-09-27T01:53:43;53104.00;;;-139.96;37.80
7906;BME280;13291;40.472;-3.878;2022-09-27T01:56:14;53162.03;;;-139.96;38.16
7906;BME280;13291;40.472;-3.878;2022-09-27T01:58:45;53166.03;;;-139.96;38.40
7906;BME280;13291;40.472;-3.878;2022-09-27T02:01:17;53172.03;;;-139.96;38.44
7906;BME280;13291;40.472;-3.878;2022-09-27T02:03:48;53138.00;;;-139.96;38.88
7906;BME280;13291;40.472;-3.878;2022-09-27T02:06:20;53148.00;;;-139.96;39.01
7906;BME280;13291;40.472;-3.878;2022-09-27T02:08:52;53144.00;;;-139.96;38.99
7906;BME280;13291;40.472;-3.878;2022-09-27T02:11:20;53178.03;;;-139.96;39.25
7906;BME280;13291;40.472;-3.878;2022-09-27T02:13:51;53154.00;;;-139.96;38.89
7906;BME280;13291;40.472;-3.878;2022-09-27T02:16:23;53146.00;;;-139.96;38.86
7906;BME280;13291;40.472;-3.878;2022-09-27T02:19:01;53142.00;;;-139.96;38.81
7906;BME280;13291;40.472;-3.878;2022-09-27T02:21:40;53132.00;;;-139.96;38.95
7906;BME280;13291;40.472;-3.878;2022-09-27T02:24:11;53134.00;;;-139.96;39.02
7906;BME280;13291;40.472;-3.878;2022-09-27T02:26:42;53178.03;;;-139.96;39.14
7906;BME280;13291;40.472;-3.878;2022-09-27T02:29:15;53148.00;;;-139.96;39.31
7906;BME280;13291;40.472;-3.878;2022-09-27T02:31:45;53164.03;;;-139.96;39.35
7906;BME280;13291;40.472;-3.878;2022-09-27T02:34:15;53158.03;;;-139.96;39.30
7906;BME280;13291;40.472;-3.878;2022-09-27T02:36:44;53148.00;;;-139.96;39.38
7906;BME280;13291;40.472;-3.878;2022-09-27T02:39:10;53158.03;;;-139.96;39.52
7906;BME280;13291;40.472;-3.878;2022-09-27T02:41:37;53142.00;;;-139.96;39.52
7906;BME280;13291;40.472;-3.878;2022-09-27T02:44:07;53174.03;;;-139.96;39.40
7906;BME280;13291;40.472;-3.878;2022-09-27T02:46:56;53146.00;;;-139.96;39.59
7906;BME280;13291;40.472;-3.878;2022-09-27T02:49:42;53136.00;;;-139.96;39.81
7906;BME280;13291;40.472;-3.878;2022-09-27T02:52:19;53134.00;;;-139.96;39.93
7906;BME280;13291;40.472;-3.878;2022-09-27T02:54:56;53144.00;;;-139.96;40.22
7906;BME280;13291;40.472;-3.878;2022-09-27T02:57:32;53144.00;;;-139.96;40.04
7906;BME280;13291;40.472;-3.878;2022-09-27T03:00:05;53148.00;;;-139.96;40.10
7906;BME280;13291;40.472;-3.878;2022-09-27T03:02:46;53146.00;;;-139.96;40.21
7906;BME280;13291;40.472;-3.878;2022-09-27T03:05:17;53152.00;;;-139.96;40.57
7906;BME280;13291;40.472;-3.878;2022-09-27T03:07:47;53156.03;;;-139.96;40.21
7906;BME280;13291;40.472;-3.878;2022-09-27T03:10:19;53126.00;;;-139.96;40.05
7906;BME280;13291;40.472;-3.878;2022-09-27T03:12:46;53160.03;;;-139.96;40.16
7906;BME280;13291;40.472;-3.878;2022-09-27T03:15:13;53152.00;;;-139.96;40.39
7906;BME280;13291;40.472;-3.878;2022-09-27T03:17:42;53148.00;;;-139.96;40.44
7906;BME280;13291;40.472;-3.878;2022-09-27T03:20:09;53190.03;;;-139.96;40.61
7906;BME280;13291;40.472;-3.878;2022-09-27T03:22:35;53168.03;;;-139.96;40.92
7906;BME280;13291;40.472;-3.878;2022-09-27T03:25:04;53154.00;;;-139.96;40.83
7906;BME280;13291;40.472;-3.878;2022-09-27T03:27:31;53150.00;;;-139.96;40.81
7906;BME280;13291;40.472;-3.878;2022-09-27T03:29:58;53190.03;;;-139.96;41.12
7906;BME280;13291;40.472;-3.878;2022-09-27T03:32:26;53136.00;;;-139.96;41.04
7906;BME280;13291;40.472;-3.878;2022-09-27T03:34:54;53122.00;;;-139.96;40.93
7906;BME280;13291;40.472;-3.878;2022-09-27T03:37:21;53158.03;;;-139.96;41.03
7906;BME280;13291;40.472;-3.878;2022-09-27T03:39:48;53162.03;;;-139.96;40.99
7906;BME280;13291;40.472;-3.878;2022-09-27T03:42:15;53142.00;;;-139.96;41.12
7906;BME280;13291;40.472;-3.878;2022-09-27T03:44:41;53162.03;;;-139.96;40.86
7906;BME280;13291;40.472;-3.878;2022-09-27T03:47:08;53154.00;;;-139.96;41.30
7906;BME280;13291;40.472;-3.878;2022-09-27T03:49:35;53146.00;;;-139.96;41.48
7906;BME280;13291;40.472;-3.878;2022-09-27T03:52:03;53180.03;;;-139.96;41.10
7906;BME280;13291;40.472;-3.878;2022-09-27T03:54:30;53134.00;;;-139.96;41.29
7906;BME280;13291;40.472;-3.878;2022-09-27T03:56:57;53098.00;;;-139.96;41.08
7906;BME280;13291;40.472;-3.878;2022-09-27T03:59:24;53144.00;;;-139.96;40.89
7906;BME280;13291;40.472;-3.878;2022-09-27T04:01:51;53134.00;;;-139.96;40.72
7906;BME280;13291;40.472;-3.878;2022-09-27T04:04:18;53142.00;;;-139.96;40.94
7906;BME280;13291;40.472;-3.878;2022-09-27T04:06:44;53150.00;;;-139.96;40.72
7906;BME280;13291;40.472;-3.878;2022-09-27T04:09:13;53138.00;;;-139.96;40.77
7906;BME280;13291;40.472;-3.878;2022-09-27T04:11:39;53124.00;;;-139.96;40.98
7906;BME280;13291;40.472;-3.878;2022-09-27T04:14:06;53146.00;;;-139.96;40.91
7906;BME280;13291;40.472;-3.878;2022-09-27T04:16:37;53150.00;;;-139.96;40.88
7906;BME280;13291;40.472;-3.878;2022-09-27T04:19:04;53158.03;;;-139.96;40.71
7906;BME280;13291;40.472;-3.878;2022-09-27T04:21:31;53144.00;;;-139.96;40.88
7906;BME280;13291;40.472;-3.878;2022-09-27T04:23:58;53134.00;;;-139.96;40.72
7906;BME280;13291;40.472;-3.878;2022-09-27T04:26:27;53178.03;;;-139.96;40.96
7906;BME280;13291;40.472;-3.878;2022-09-27T04:28:54;53166.03;;;-139.96;40.73
7906;BME280;13291;40.472;-3.878;2022-09-27T04:31:21;53152.00;;;-139.96;40.91
7906;BME280;13291;40.472;-3.878;2022-09-27T04:33:48;53144.00;;;-139.96;41.40
7906;BME280;13291;40.472;-3.878;2022-09-27T04:36:18;53142.00;;;-139.96;41.55
7906;BME280;13291;40.472;-3.878;2022-09-27T04:38:53;53168.03;;;-139.96;41.41
7906;BME280;13291;40.472;-3.878;2022-09-27T04:41:21;53168.03;;;-139.96;41.25
7906;BME280;13291;40.472;-3.878;2022-09-27T04:43:49;53154.00;;;-139.96;41.58
7906;BME280;13291;40.472;-3.878;2022-09-27T04:46:16;53148.00;;;-139.96;41.68
7906;BME280;13291;40.472;-3.878;2022-09-27T04:48:44;53160.03;;;-139.96;41.79
7906;BME280;13291;40.472;-3.878;2022-09-27T04:51:11;53168.03;;;-139.96;41.80
7906;BME280;13291;40.472;-3.878;2022-09-27T04:53:40;53160.03;;;-139.96;42.15
7906;BME280;13291;40.472;-3.878;2022-09-27T04:56:07;53174.03;;;-139.96;42.21
7906;BME280;13291;40.472;-3.878;2022-09-27T04:58:34;53138.00;;;-139.96;42.56
7906;BME280;13291;40.472;-3.878;2022-09-27T05:01:03;53184.03;;;-139.96;42.50
7906;BME280;13291;40.472;-3.878;2022-09-27T05:03:31;53146.00;;;-139.96;43.13
7906;BME280;13291;40.472;-3.878;2022-09-27T05:05:58;53182.03;;;-139.96;42.92
7906;BME280;13291;40.472;-3.878;2022-09-27T05:08:25;53174.03;;;-139.96;42.93
7906;BME280;13291;40.472;-3.878;2022-09-27T05:10:53;53194.03;;;-139.96;42.81
7906;BME280;13291;40.472;-3.878;2022-09-27T05:13:20;53154.00;;;-139.96;42.85
7906;BME280;13291;40.472;-3.878;2022-09-27T05:15:46;53138.00;;;-139.96;42.83
7906;BME280;13291;40.472;-3.878;2022-09-27T05:18:15;53164.03;;;-139.96;43.17
7906;BME280;13291;40.472;-3.878;2022-09-27T05:20:42;53146.00;;;-139.96;43.27
7906;BME280;13291;40.472;-3.878;2022-09-27T05:23:09;53126.00;;;-139.96;42.98
7906;BME280;13291;40.472;-3.878;2022-09-27T05:25:36;53172.03;;;-139.96;42.74
7906;BME280;13291;40.472;-3.878;2022-09-27T05:28:03;53130.00;;;-139.96;42.90
7906;BME280;13291;40.472;-3.878;2022-09-27T05:30:30;53198.03;;;-139.96;43.10
7906;BME280;13291;40.472;-3.878;2022-09-27T05:32:57;53158.03;;;-139.96;43.21
7906;BME280;13291;40.472;-3.878;2022-09-27T05:35:26;53172.03;;;-139.96;43.24
7906;BME280;13291;40.472;-3.878;2022-09-27T05:37:53;53154.00;;;-139.96;43.18
7906;BME280;13291;40.472;-3.878;2022-09-27T05:40:20;53218.03;;;-139.96;43.56
7906;BME280;13291;40.472;-3.878;2022-09-27T05:42:49;53156.03;;;-139.96;43.55
7906;BME280;13291;40.472;-3.878;2022-09-27T05:45:16;53166.03;;;-139.96;43.80
7906;BME280;13291;40.472;-3.878;2022-09-27T05:47:43;53116.00;;;-139.96;43.30
7906;BME280;13291;40.472;-3.878;2022-09-27T05:50:17;53144.00;;;-139.96;43.10
7906;BME280;13291;40.472;-3.878;2022-09-27T05:52:46;53150.00;;;-139.96;42.76
7906;BME280;13291;40.472;-3.878;2022-09-27T05:55:13;53142.00;;;-139.96;42.79
7906;BME280;13291;40.472;-3.878;2022-09-27T05:57:39;53174.03;;;-139.96;43.01
7906;BME280;13291;40.472;-3.878;2022-09-27T06:00:07;53132.00;;;-139.96;43.26
7906;BME280;13291;40.472;-3.878;2022-09-27T06:02:35;53138.00;;;-139.96;43.26
7906;BME280;13291;40.472;-3.878;2022-09-27T06:05:02;53186.03;;;-139.96;43.44
7906;BME280;13291;40.472;-3.878;2022-09-27T06:07:30;53166.03;;;-139.96;43.35
7906;BME280;13291;40.472;-3.878;2022-09-27T06:09:58;53176.03;;;-139.96;43.40
7906;BME280;13291;40.472;-3.878;2022-09-27T06:12:25;53168.03;;;-139.96;43.57
7906;BME280;13291;40.472;-3.878;2022-09-27T06:14:52;53148.00;;;-139.96;43.68
7906;BME280;13291;40.472;-3.878;2022-09-27T06:17:18;53170.03;;;-139.96;43.45
7906;BME280;13291;40.472;-3.878;2022-09-27T06:19:46;53166.03;;;-139.96;44.30
7906;BME280;13291;40.472;-3.878;2022-09-27T06:22:14;53158.03;;;-139.96;44.20
7906;BME280;13291;40.472;-3.878;2022-09-27T06:24:41;53188.03;;;-139.96;43.96
7906;BME280;13291;40.472;-3.878;2022-09-27T06:27:09;53188.03;;;-139.96;43.75
7906;BME280;13291;40.472;-3.878;2022-09-27T06:29:36;53160.03;;;-139.96;43.83
7906;BME280;13291;40.472;-3.878;2022-09-27T06:32:03;53160.03;;;-139.96;43.94
7906;BME280;13291;40.472;-3.878;2022-09-27T06:34:30;53174.03;;;-139.96;43.83
7906;BME280;13291;40.472;-3.878;2022-09-27T06:36:57;53148.00;;;-139.96;44.26
7906;BME280;13291;40.472;-3.878;2022-09-27T06:39:24;53138.00;;;-139.96;44.28
7906;BME280;13291;40.472;-3.878;2022-09-27T06:41:53;53158.03;;;-139.96;43.80
7906;BME280;13291;40.472;-3.878;2022-09-27T06:44:24;53150.00;;;-139.96;43.65
7906;BME280;13291;40.472;-3.878;2022-09-27T06:46:51;53176.03;;;-139.96;44.19
7906;BME280;13291;40.472;-3.878;2022-09-27T06:49:20;53168.03;;;-139.96;44.44
7906;BME280;13291;40.472;-3.878;2022-09-27T06:51:47;53158.03;;;-139.96;44.41
7906;BME280;13291;40.472;-3.878;2022-09-27T06:54:14;53158.03;;;-139.96;44.75
7906;BME280;13291;40.472;-3.878;2022-09-27T06:56:41;53168.03;;;-139.96;44.64
7906;BME280;13291;40.472;-3.878;2022-09-27T06:59:08;53152.00;;;-139.96;44.36
7906;BME280;13291;40.472;-3.878;2022-09-27T07:01:53;53146.00;;;-139.96;44.80
7906;BME280;13291;40.472;-3.878;2022-09-27T07:04:20;53162.03;;;-139.96;44.93
7906;BME280;13291;40.472;-3.878;2022-09-27T07:06:48;53162.03;;;-139.96;44.64
7906;BME280;13291;40.472;-3.878;2022-09-27T07:09:15;53174.03;;;-139.96;45.14
7906;BME280;13291;40.472;-3.878;2022-09-27T07:11:42;53186.03;;;-139.96;45.23
7906;BME280;13291;40.472;-3.878;2022-09-27T07:14:10;53166.03;;;-139.96;44.53
7906;BME280;13291;40.472;-3.878;2022-09-27T07:16:37;53166.03;;;-139.96;44.72
7906;BME280;13291;40.472;-3.878;2022-09-27T07:19:05;53142.00;;;-139.96;44.19
7906;BME280;13291;40.472;-3.878;2022-09-27T07:21:36;53142.00;;;-139.96;44.14
7906;BME280;13291;40.472;-3.878;2022-09-27T07:24:03;53168.03;;;-139.96;43.89
7906;BME280;13291;40.472;-3.878;2022-09-27T07:26:30;53166.03;;;-139.96;44.10
7906;BME280;13291;40.472;-3.878;2022-09-27T07:28:57;53184.03;;;-139.96;43.86
7906;BME280;13291;40.472;-3.878;2022-09-27T07:31:25;53154.00;;;-139.96;43.63
7906;BME280;13291;40.472;-3.878;2022-09-27T07:33:51;53156.03;;;-139.96;43.41
7906;BME280;13291;40.472;-3.878;2022-09-27T07:36:20;53178.03;;;-139.96;43.22
7906;BME280;13291;40.472;-3.878;2022-09-27T07:38:47;53180.03;;;-139.96;43.48
7906;BME280;13291;40.472;-3.878;2022-09-27T07:41:14;53150.00;;;-139.96;43.70
7906;BME280;13291;40.472;-3.878;2022-09-27T07:43:41;53172.03;;;-139.96;43.36
7906;BME280;13291;40.472;-3.878;2022-09-27T07:46:09;53146.00;;;-139.96;43.58
7906;BME280;13291;40.472;-3.878;2022-09-27T07:48:37;53174.03;;;-139.96;43.68
7906;BME280;13291;40.472;-3.878;2022-09-27T07:51:04;53148.00;;;-139.96;43.76
7906;BME280;13291;40.472;-3.878;2022-09-27T07:53:36;53138.00;;;-139.96;42.69
7906;BME280;13291;40.472;-3.878;2022-09-27T07:56:04;53186.03;;;-139.96;42.82
7906;BME280;13291;40.472;-3.878;2022-09-27T07:58:31;53174.03;;;-139.96;42.44
7906;BME280;13291;40.472;-3.878;2022-09-27T08:00:58;53120.00;;;-139.96;42.73
7906;BME280;13291;40.472;-3.878;2022-09-27T08:03:25;53128.00;;;-139.96;41.12
7906;BME280;13291;40.472;-3.878;2022-09-27T08:05:52;53096.00;;;-139.96;41.05
7906;BME280;13291;40.472;-3.878;2022-09-27T08:08:19;53130.00;;;-139.96;41.02
7906;BME280;13291;40.472;-3.878;2022-09-27T08:10:47;53096.00;;;-139.96;41.47
7906;BME280;13291;40.472;-3.878;2022-09-27T08:13:15;53126.00;;;-139.96;41.36
7906;BME280;13291;40.472;-3.878;2022-09-27T08:15:44;53158.03;;;-139.96;41.38
7906;BME280;13291;40.472;-3.878;2022-09-27T08:18:13;53138.00;;;-139.96;40.57
7906;BME280;13291;40.472;-3.878;2022-09-27T08:20:40;53126.00;;;-139.96;40.33
7906;BME280;13291;40.472;-3.878;2022-09-27T08:23:07;53110.00;;;-139.96;40.68
7906;BME280;13291;40.472;-3.878;2022-09-27T08:25:34;53138.00;;;-139.96;40.91
7906;BME280;13291;40.472;-3.878;2022-09-27T08:28:03;53086.00;;;-139.96;41.41
7906;BME280;13291;40.472;-3.878;2022-09-27T08:30:31;53112.00;;;-139.96;41.63
7906;BME280;13291;40.472;-3.878;2022-09-27T08:32:59;53124.00;;;-139.96;41.64
7906;BME280;13291;40.472;-3.878;2022-09-27T08:35:27;53116.00;;;-139.96;41.11
7906;BME280;13291;40.472;-3.878;2022-09-27T08:37:55;53114.00;;;-139.96;40.39
7906;BME280;13291;40.472;-3.878;2022-09-27T08:40:26;53104.00;;;-139.96;40.13
7906;BME280;13291;40.472;-3.878;2022-09-27T08:43:03;53098.00;;;-139.96;40.53
7906;BME280;13291;40.472;-3.878;2022-09-27T08:45:36;53098.00;;;-139.96;40.48
7906;BME280;13291;40.472;-3.878;2022-09-27T08:48:08;53072.00;;;-139.96;40.52
7906;BME280;13291;40.472;-3.878;2022-09-27T08:50:37;53100.00;;;-139.96;39.89
7906;BME280;13291;40.472;-3.878;2022-09-27T08:53:17;53102.00;;;-139.96;39.91
7906;BME280;13291;40.472;-3.878;2022-09-27T08:55:47;53082.00;;;-139.96;39.72
7906;BME280;13291;40.472;-3.878;2022-09-27T08:58:35;53112.00;;;-139.96;39.43
7906;BME280;13291;40.472;-3.878;2022-09-27T09:01:05;53102.00;;;-139.96;39.52
7906;BME280;13291;40.472;-3.878;2022-09-27T09:03:35;53084.00;;;-139.96;39.29
7906;BME280;13291;40.472;-3.878;2022-09-27T09:06:09;53070.00;;;-139.96;38.57
7906;BME280;13291;40.472;-3.878;2022-09-27T09:08:44;53080.00;;;-139.96;38.42
7906;BME280;13291;40.472;-3.878;2022-09-27T09:11:24;53110.00;;;-139.96;37.67
7906;BME280;13291;40.472;-3.878;2022-09-27T09:14:30;53098.00;;;-139.96;37.89
7906;BME280;13291;40.472;-3.878;2022-09-27T09:17:08;53082.00;;;-139.96;37.49
7906;BME280;13291;40.472;-3.878;2022-09-27T09:19:54;53122.00;;;-139.96;38.35
7906;BME280;13291;40.472;-3.878;2022-09-27T09:22:39;53064.00;;;-139.96;37.49
7906;BME280;13291;40.472;-3.878;2022-09-27T09:25:20;53072.00;;;-139.96;37.68
7906;BME280;13291;40.472;-3.878;2022-09-27T09:27:56;53118.00;;;-139.96;37.28
7906;BME280;13291;40.472;-3.878;2022-09-27T09:30:35;53088.00;;;-139.96;37.15
7906;BME280;13291;40.472;-3.878;2022-09-27T09:33:22;53078.00;;;-139.96;37.16
7906;BME280;13291;40.472;-3.878;2022-09-27T09:35:54;53092.00;;;-139.96;37.39
7906;BME280;13291;40.472;-3.878;2022-09-27T09:38:32;53066.00;;;-139.96;37.05
7906;BME280;13291;40.472;-3.878;2022-09-27T09:41:04;53082.00;;;-139.96;36.95
7906;BME280;13291;40.472;-3.878;2022-09-27T09:43:38;53062.00;;;-139.96;37.47
7906;BME280;13291;40.472;-3.878;2022-09-27T09:46:10;53080.00;;;-139.96;36.58
7906;BME280;13291;40.472;-3.878;2022-09-27T09:48:43;53082.00;;;-139.96;36.46
7906;BME280;13291;40.472;-3.878;2022-09-27T09:51:15;53084.00;;;-139.96;36.66
7906;BME280;13291;40.472;-3.878;2022-09-27T09:53:49;53068.00;;;-139.96;36.61
7906;BME280;13291;40.472;-3.878;2022-09-27T09:56:22;53084.00;;;-139.96;36.47
7906;BME280;13291;40.472;-3.878;2022-09-27T09:58:53;53042.00;;;-139.96;36.81
7906;BME280;13291;40.472;-3.878;2022-09-27T10:01:25;53078.00;;;-139.96;36.77
7906;BME280;13291;40.472;-3.878;2022-09-27T10:03:53;53066.00;;;-139.96;36.86
7906;BME280;13291;40.472;-3.878;2022-09-27T10:06:20;53056.00;;;-139.96;37.01
7906;BME280;13291;40.472;-3.878;2022-09-27T10:08:48;53072.00;;;-139.96;35.98
7906;BME280;13291;40.472;-3.878;2022-09-27T10:11:21;53070.00;;;-139.96;35.52
7906;BME280;13291;40.472;-3.878;2022-09-27T10:13:49;53048.00;;;-139.96;35.36
7906;BME280;13291;40.472;-3.878;2022-09-27T10:16:18;53082.00;;;-139.96;35.53
7906;BME280;13291;40.472;-3.878;2022-09-27T10:18:48;53056.00;;;-139.96;35.70
7906;BME280;13291;40.472;-3.878;2022-09-27T10:21:19;53090.00;;;-139.96;35.91
7906;BME280;13291;40.472;-3.878;2022-09-27T10:24:09;53050.00;;;-139.96;36.29
7906;BME280;13291;40.472;-3.878;2022-09-27T10:26:37;53042.00;;;-139.96;35.72
7906;BME280;13291;40.472;-3.878;2022-09-27T10:29:29;53052.00;;;-139.96;35.84
7906;BME280;13291;40.472;-3.878;2022-09-27T10:31:58;53082.00;;;-139.96;35.60
7906;BME280;13291;40.472;-3.878;2022-09-27T10:34:32;53054.00;;;-139.96;35.10
7906;BME280;13291;40.472;-3.878;2022-09-27T10:37:08;53086.00;;;-139.96;35.14
7906;BME280;13291;40.472;-3.878;2022-09-27T10:39:42;53038.00;;;-139.96;35.41
7906;BME280;13291;40.472;-3.878;2022-09-27T10:42:20;53068.00;;;-139.96;35.17
7906;BME280;13291;40.472;-3.878;2022-09-27T10:44:47;53072.00;;;-139.96;35.39
7906;BME280;13291;40.472;-3.878;2022-09-27T10:47:17;53054.00;;;-139.96;35.53
7906;BME280;13291;40.472;-3.878;2022-09-27T10:49:49;53048.00;;;-139.96;35.31
7906;BME280;13291;40.472;-3.878;2022-09-27T10:52:18;53078.00;;;-139.96;35.60
7906;BME280;13291;40.472;-3.878;2022-09-27T10:54:52;53052.00;;;-139.96;34.95
7906;BME280;13291;40.472;-3.878;2022-09-27T10:57:21;53042.00;;;-139.96;35.36
7906;BME280;13291;40.472;-3.878;2022-09-27T10:59:51;53036.00;;;-139.96;34.83
7906;BME280;13291;40.472;-3.878;2022-09-27T11:02:20;53046.00;;;-139.96;35.05
7906;BME280;13291;40.472;-3.878;2022-09-27T11:05:05;53054.00;;;-139.96;35.71
7906;BME280;13291;40.472;-3.878;2022-09-27T11:07:34;53032.00;;;-139.96;35.18
7906;BME280;13291;40.472;-3.878;2022-09-27T11:10:02;53026.00;;;-139.96;35.05
7906;BME280;13291;40.472;-3.878;2022-09-27T11:13:04;53052.00;;;-139.96;34.23
7906;BME280;13291;40.472;-3.878;2022-09-27T11:15:36;53014.00;;;-139.96;33.86
7906;BME280;13291;40.472;-3.878;2022-09-27T11:18:11;53050.00;;;-139.96;34.46
7906;BME280;13291;40.472;-3.878;2022-09-27T11:20:46;53012.00;;;-139.96;34.64
7906;BME280;13291;40.472;-3.878;2022-09-27T11:23:31;53014.00;;;-139.96;34.17
7906;BME280;13291;40.472;-3.878;2022-09-27T11:26:19;53022.00;;;-139.96;34.06
7906;BME280;13291;40.472;-3.878;2022-09-27T11:28:56;53030.00;;;-139.96;34.00
7906;BME280;13291;40.472;-3.878;2022-09-27T11:31:35;53038.00;;;-139.96;33.75
7906;BME280;13291;40.472;-3.878;2022-09-27T11:34:31;52997.97;;;-139.96;33.27
7906;BME280;13291;40.472;-3.878;2022-09-27T11:37:19;53030.00;;;-139.96;33.69
7906;BME280;13291;40.472;-3.878;2022-09-27T11:40:01;53020.00;;;-139.96;33.17
7906;BME280;13291;40.472;-3.878;2022-09-27T11:42:50;52995.97;;;-139.96;33.52
7906;BME280;13291;40.472;-3.878;2022-09-27T11:45:29;53038.00;;;-139.96;32.63
7906;BME280;13291;40.472;-3.878;2022-09-27T11:48:08;53016.00;;;-139.96;33.14
7906;BME280;13291;40.472;-3.878;2022-09-27T11:50:51;53022.00;;;-139.96;31.85
7906;BME280;13291;40.472;-3.878;2022-09-27T11:53:35;53014.00;;;-139.96;32.29
7906;BME280;13291;40.472;-3.878;2022-09-27T11:56:12;53030.00;;;-139.96;32.41
7906;BME280;13291;40.472;-3.878;2022-09-27T11:59:01;53005.97;;;-139.96;32.11
7906;BME280;13291;40.472;-3.878;2022-09-27T12:01:37;53018.00;;;-139.96;31.90
7906;BME280;13291;40.472;-3.878;2022-09-27T12:04:41;53030.00;;;-139.96;32.16
7906;BME280;13291;40.472;-3.878;2022-09-27T12:07:16;52997.97;;;-139.96;30.80
7906;BME280;13291;40.472;-3.878;2022-09-27T12:09:51;52985.97;;;-139.96;30.99
7906;BME280;13291;40.472;-3.878;2022-09-27T12:12:21;53001.97;;;-139.96;30.79
7906;BME280;13291;40.472;-3.878;2022-09-27T12:14:52;53001.97;;;-139.96;30.89
7906;BME280;13291;40.472;-3.878;2022-09-27T12:17:24;53022.00;;;-139.96;30.84
7906;BME280;13291;40.472;-3.878;2022-09-27T12:19:55;52977.97;;;-139.96;31.70
7906;BME280;13291;40.472;-3.878;2022-09-27T12:22:27;52999.97;;;-139.96;31.57
7906;BME280;13291;40.472;-3.878;2022-09-27T12:24:56;53005.97;;;-139.96;31.61
7906;BME280;13291;40.472;-3.878;2022-09-27T12:27:31;53018.00;;;-139.96;31.64
7906;BME280;13291;40.472;-3.878;2022-09-27T12:30:00;52981.97;;;-139.96;31.72
7906;BME280;13291;40.472;-3.878;2022-09-27T12:32:32;53020.00;;;-139.96;30.17
7906;BME280;13291;40.472;-3.878;2022-09-27T12:35:07;52977.97;;;-139.96;30.62
7906;BME280;13291;40.472;-3.878;2022-09-27T12:37:41;53032.00;;;-139.96;31.23
7906;BME280;13291;40.472;-3.878;2022-09-27T12:40:16;52987.97;;;-139.96;31.40
7906;BME280;13291;40.472;-3.878;2022-09-27T12:42:47;52989.97;;;-139.96;31.56
7906;BME280;13291;40.472;-3.878;2022-09-27T12:45:30;52989.97;;;-139.96;31.16
7906;BME280;13291;40.472;-3.878;2022-09-27T12:48:07;52981.97;;;-139.96;30.28
7906;BME280;13291;40.472;-3.878;2022-09-27T12:50:41;52979.97;;;-139.96;30.63
7906;BME280;13291;40.472;-3.878;2022-09-27T12:53:13;52997.97;;;-139.96;29.98
7906;BME280;13291;40.472;-3.878;2022-09-27T12:55:53;53026.00;;;-139.96;30.02
7906;BME280;13291;40.472;-3.878;2022-09-27T12:58:42;53001.97;;;-139.96;30.71
7906;BME280;13291;40.472;-3.878;2022-09-27T13:01:23;53030.00;;;-139.96;30.48
7906;BME280;13291;40.472;-3.878;2022-09-27T13:04:07;52957.97;;;-139.96;30.72